Disclaimer

Please do not use the information listed here in-flight or in-navigation, as they are not provided to us by the airports but are provided by volunteers, so they might be outdated.

Search


Regions


Airport information page

No radio frequency information is available.

Airport informations:
Latitude: 39° 36' 56.00" N
Longitude: 140° 13' 07.00" E
Elevation: 313 feet - 95 meters
Operating hours: Remarks
Operating agency: Civil government, landing fees and diplomatic clearance may be required
Timezone: UTC+9
Fuel: 80/87 octane gasoline, leaded, MIL-L-5572F (RED)

100/130 MIL Spec, low lead, aviation gasoline (BLUE)

Runway information:
10/28 - 8200 x 200 feet< - >2499 x 61 meters

Recent METARs:
RJSK 151100Z VRB01KT 9999 FEW030 BKN040 08/03 Q1024
RJSK 151100Z VRB01KT 9999 FEW030 BKN040 08/03 Q1024
RJSK 151200Z VRB02KT 9999 FEW030 BKN040 08/03 Q1024

Airport on the map: